Leicester, NC (28748)

1:52 AM EDT on September 19, 2014 (GMT -0400)
Hayes Cove | Change Station
CLOSE
Current Station
Personal Weather Station
Location: Leicester, NC
Elevation: 2475 ft
Nearby Weather Stations

Elev 2475 ft 35.61 °N, 82.72 °W | Updated 10 minutes ago

Partly Cloudy
Partly Cloudy
60.9 °F
Feels Like 60.9 °F
N
0.0
Wind Variable Wind from SSW
Gusts 0.0 mph

Today
High -- | Low -- °F
--% Chance of Precip.
Yesterday
High -- | Low -- °F
Precip. -- in
7:16 AM 7:32 PM
Waning Crescent, 21% visible
Pressure 30.10 in
Visibility 8.0 miles
Clouds Scattered Clouds 2800 ft
Dew Point 59 °F
Humidity 94%
Rainfall 0.00 in
Snow Depth Not available.
UV 0 out of 12
Pollen 7.00 out of 12
Ozone Good
PM2.5 Good
Flu Activity Not available.
SPECI KAVL 190522Z AUTO 00000KT 8SM SCT028 17/16 A3010 RMK AO2 T01720161

More Conditions Fewer Conditions

Pressure 30.10 in
Visibility 8.0 miles
Clouds Scattered Clouds 2800 ft
Dew Point 59 °F
Humidity 94%
Rainfall 0.00 in
Snow Depth Not available.
UV 0 out of 12
Pollen 7.00 out of 12
Ozone Good
PM2.5 Good
Flu Activity Not available.
SPECI KAVL 190522Z AUTO 00000KT 8SM SCT028 17/16 A3010 RMK AO2 T01720161

More Conditions Fewer Conditions

10-Day Weather Forecast

Almanac

Astronomy

Sep. 19, 2014 Rise Set
Actual Time 7:16 AM EDT 7:32 PM EDT
Civil Twilight 6:51 AM EDT 7:57 PM EDT
Nautical Twilight 6:21 AM EDT 8:27 PM EDT
Astronomical Twilight 5:50 AM EDT 8:57 PM EDT
Moon 3:07 AM EDT 4:54 PM EDT
Length of Visible Light 13h 06m
Length of Day
12h 15m
Tomorrow will be 2m 14s shorter.
Waning Crescent, 21% of the Moon is Illuminated
Today
Waning Crescent
Sep 24
New
Oct 1
First Quarter
Oct 8
Full
Oct 15
Last Quarter

Today's Extremes

State Highs State Lows

Community

WunderPhotos

Upload Photos

1,754,573 photos uploaded!

Nearby

Air Quality

  Air Quality AQ Index Pollutant
Yesterday Good
PM2.5
Yesterday Good
OZONE
Current Good
PM2.5
Current Good
OZONE
Friday Good
PM2.5
Friday Good
OZONE
Saturday Good
PM2.5
Saturday Good
OZONE
Sunday Good
PM2.5
Sunday Good
OZONE

Snow Depth

Station Depth Elevation
No new snow has been reported.

Earthquake Activity

City Distance Mag. Time & Date
No recent earthquake activity has been reported nearby.
Minimum magnitude displayed is 2.5.

Coastal Water Temperatures

Place Temperature
No Stations Reporting

Nearby Weather Stations